This is the latest recevied weather packets stored in our database for station/object DL4YM-13. If no packets are shown the sender has not sent any weather packets the latest 10 day(s).
| Time | Temp. | Humidity | Pressure | Rain* | Wind** | Luminosity | Snow |
|---|---|---|---|---|---|---|---|
| 1777713925 | 21.67° C | 33% | 1003.5 hPa | - | - | - | - |
| 1777713325 | 21.67° C | 33% | 1003.5 hPa | - | - | - | - |
| 1777712725 | 21.11° C | 36% | 1003.4 hPa | - | - | - | - |
| 1777712125 | 21.67° C | 36% | 1003.6 hPa | - | - | - | - |
| 1777711525 | 20.56° C | 38% | 1003.8 hPa | - | - | - | - |
| 1777710925 | 20.56° C | 38% | 1003.8 hPa | - | - | - | - |
| 1777710325 | 20.56° C | 37% | 1003.8 hPa | - | - | - | - |
| 1777709725 | 20.56° C | 37% | 1003.8 hPa | - | - | - | - |
| 1777709125 | 20° C | 42% | 1003.7 hPa | - | - | - | - |
| 1777708525 | 20° C | 42% | 1003.7 hPa | - | - | - | - |
| 1777707926 | 18.89° C | 43% | 1003.7 hPa | - | - | - | - |
| 1777707325 | 18.89° C | 44% | 1003.7 hPa | - | - | - | - |
| 1777706725 | 18.33° C | 45% | 1003.9 hPa | - | - | - | - |
| 1777706125 | 17.78° C | 45% | 1004 hPa | - | - | - | - |
| 1777705525 | 15.56° C | 48% | 1004 hPa | - | - | - | - |
| 1777704925 | 15.56° C | 48% | 1004 hPa | - | - | - | - |
| 1777704325 | 14.44° C | 53% | 1003.9 hPa | - | - | - | - |
| 1777703725 | 14.44° C | 53% | 1003.9 hPa | - | - | - | - |
| 1777703125 | 12.22° C | 57% | 1004.2 hPa | - | - | - | - |
| 1777702525 | 12.22° C | 57% | 1004.2 hPa | - | - | - | - |
| 1777701925 | 12.22° C | 57% | 1004.2 hPa | - | - | - | - |
| 1777701325 | 11.67° C | 58% | 1004.1 hPa | - | - | - | - |
| 1777700725 | 11.11° C | 60% | 1004.2 hPa | - | - | - | - |
| 1777700125 | 10° C | 62% | 1004.3 hPa | - | - | - | - |
| 1777699526 | 10° C | 62% | 1004.3 hPa | - | - | - | - |
* Rain since midnight (hover to see other rain measurements)
** Current wind speed in m/s (hover to see current wind gust speed)